Time;durP1;ratioP1;P1;durP2;ratioP2;P2;SDS_P1;SDS_P2;PMS_P1;PMS_P2;Temp;Humidity;BMP_temperature;BMP_pressure;BME280_temperature;BME280_humidity;BME280_pressure;Samples;Min_cycle;Max_cycle;Signal;HPM_P1;HPM_P2
2022/01/26 00:06:22;;;;;;;4.10;2.50;;;-2.00;1.40;;;-1.41;100.00;96614.31;642991;212;31691;-76
2022/01/26 00:08:59;;;;;;;1.80;1.70;;;-2.00;1.40;;;-1.56;100.00;96608.56;648865;216;42196;-76
2022/01/26 00:11:41;;;;;;;6.30;3.15;;;-2.10;1.40;;;-1.58;100.00;96612.16;646394;212;31567;-75
2022/01/26 00:14:25;;;;;;;2.83;2.53;;;-2.10;1.40;;;-1.41;100.00;96603.88;647038;216;31550;-74
2022/01/26 00:17:13;;;;;;;4.10;3.10;;;-2.10;1.40;;;-1.31;100.00;96599.27;645696;216;31583;-77
2022/01/26 00:20:12;;;;;;;4.22;2.65;;;-2.00;1.40;;;-1.37;100.00;96593.93;648710;216;32169;-78
2022/01/26 00:23:00;;;;;;;5.95;3.35;;;-2.10;1.40;;;-1.34;100.00;96597.77;645111;212;33561;-77
2022/01/26 00:25:40;;;;;;;2.92;2.72;;;-2.10;1.40;;;-1.35;100.00;96598.17;652376;216;31674;-74
2022/01/26 00:28:34;;;;;;;4.37;2.67;;;-2.10;1.40;;;-1.09;100.00;96598.02;623573;222;32426;-74
2022/01/26 00:32:00;;;;;;;3.47;1.95;;;-2.00;1.40;;;-1.05;100.00;96600.02;648364;216;31596;-77
2022/01/26 00:38:41;;;;;;;4.22;2.50;;;-2.00;1.40;;;-0.80;100.00;96605.90;646337;212;31759;-76
2022/01/26 00:44:00;;;;;;;3.47;2.80;;;-1.90;1.40;;;-0.85;100.00;96600.35;649042;216;32479;-76
2022/01/26 00:46:48;;;;;;;3.20;1.77;;;-2.00;1.40;;;-0.99;100.00;96600.34;647014;216;31560;-75
2022/01/26 00:49:23;;;;;;;5.70;3.60;;;-2.00;1.40;;;-1.33;100.00;96600.41;646055;216;31681;-76
2022/01/26 00:52:11;;;;;;;3.65;1.92;;;-2.20;1.40;;;-1.35;100.00;96595.91;647130;212;32242;-76
2022/01/26 00:54:48;;;;;;;3.35;3.05;;;-2.20;1.40;;;-1.60;100.00;96605.55;646812;212;31568;-76
2022/01/26 00:57:30;;;;;;;3.30;1.30;;;-2.30;1.40;;;-1.64;100.00;96604.55;647139;212;32148;-76
2022/01/26 01:00:17;;;;;;;6.10;2.60;;;-2.30;1.40;;;-1.64;100.00;96604.08;646880;213;32035;-76
2022/01/26 01:03:01;;;;;;;2.30;1.50;;;-2.30;1.40;;;-1.58;100.00;96610.31;647117;212;42111;-76
2022/01/26 01:05:53;;;;;;;5.37;3.45;;;-2.30;1.40;;;-1.42;100.00;96611.28;621335;226;32012;-73
2022/01/26 01:08:27;;;;;;;2.85;2.12;;;-2.30;1.40;;;-1.41;100.00;96611.86;618095;222;31955;-76
2022/01/26 01:11:15;;;;;;;3.47;2.08;;;-2.30;1.40;;;-1.30;100.00;96613.72;647276;216;31583;-72
2022/01/26 01:13:59;;;;;;;3.25;2.10;;;-2.20;1.40;;;-1.30;100.00;96608.70;647533;216;31567;-75
2022/01/26 01:16:43;;;;;;;3.00;2.70;;;-2.20;1.40;;;-1.23;100.00;96607.38;623921;222;32633;-76
2022/01/26 01:19:37;;;;;;;2.42;2.17;;;-2.20;1.40;;;-1.04;100.00;96603.31;650958;212;31721;-73
2022/01/26 01:22:42;;;;;;;4.30;3.90;;;-2.20;1.40;;;-0.90;100.00;96597.77;619451;226;31878;-76
2022/01/26 01:25:57;;;;;;;2.50;2.30;;;-2.10;1.40;;;-1.02;100.00;96595.73;647936;216;32080;-76
2022/01/26 01:28:17;;;;;;;2.37;2.17;;;-2.30;1.40;;;-1.22;100.00;96595.34;649810;216;31531;-76
2022/01/26 01:30:48;;;;;;;4.00;1.73;;;-2.40;1.40;;;-1.33;100.00;96585.34;648797;216;32112;-76
2022/01/26 01:35:52;;;;;;;3.15;2.92;;;-2.40;1.40;;;-1.70;100.00;96588.28;650744;212;31609;-76
2022/01/26 01:38:34;;;;;;;3.50;1.70;;;-2.40;1.40;;;-1.77;100.00;96587.44;649822;216;31517;-76
2022/01/26 01:41:14;;;;;;;2.45;1.45;;;-2.60;1.40;;;-1.99;100.00;96587.58;648427;216;31549;-76
2022/01/26 01:43:56;;;;;;;2.13;1.90;;;-2.70;1.40;;;-1.96;100.00;96581.63;647222;216;31551;-76
2022/01/26 01:46:38;;;;;;;3.15;2.85;;;-2.60;1.40;;;-1.75;100.00;96593.95;649698;216;31590;-78
2022/01/26 01:49:20;;;;;;;3.90;2.80;;;-2.50;1.40;;;-1.83;100.00;96590.84;649507;216;31601;-76
2022/01/26 01:52:04;;;;;;;2.80;1.62;;;-2.50;1.40;;;-1.99;100.00;96590.30;647870;212;31726;-76
2022/01/26 01:54:51;;;;;;;2.70;1.70;;;-2.60;1.40;;;-2.16;100.00;96590.50;646673;216;31563;-76
2022/01/26 01:57:28;;;;;;;4.30;1.40;;;-2.80;1.40;;;-2.15;100.00;96587.31;647647;212;31483;-76
2022/01/26 02:00:11;;;;;;;4.00;2.37;;;-2.70;1.40;;;-2.32;100.00;96587.58;648400;216;31530;-76
2022/01/26 02:02:53;;;;;;;2.42;2.22;;;-2.90;1.40;;;-2.36;100.00;96590.61;646205;216;31563;-76
2022/01/26 02:05:34;;;;;;;3.95;2.35;;;-3.00;1.40;;;-2.33;100.00;96579.54;644821;216;31685;-76
2022/01/26 02:08:16;;;;;;;2.42;1.62;;;-2.90;1.40;;;-2.39;100.00;96576.05;650517;212;31563;-76
2022/01/26 02:10:58;;;;;;;3.30;2.25;;;-3.00;1.40;;;-2.45;100.00;96574.30;646550;216;31556;-76
2022/01/26 02:16:51;;;;;;;5.70;2.00;;;-3.00;1.40;;;-2.33;100.00;96570.55;648487;212;32106;-75
2022/01/26 02:19:51;;;;;;;2.80;2.10;;;-3.00;1.40;;;-2.60;100.00;96566.84;646463;212;42199;-76
2022/01/26 02:52:58;;;;;;;2.90;1.40;;;-3.20;1.40;;;-2.51;100.00;96557.14;623688;222;32606;-76
2022/01/26 02:55:40;;;;;;;1.33;1.23;;;-3.20;1.40;;;-2.72;100.00;96551.44;649931;212;31581;-79
2022/01/26 03:04:29;;;;;;;5.90;3.50;;;-3.30;1.40;;;-2.78;100.00;96546.28;649350;216;31552;-76
2022/01/26 03:07:20;;;;;;;2.30;1.08;;;-3.30;1.40;;;-2.69;100.00;96542.86;642196;216;31981;-74
2022/01/26 03:10:09;;;;;;;2.10;1.40;;;-3.30;1.40;;;-2.82;100.00;96545.41;616223;225;32121;-73
2022/01/26 03:13:01;;;;;;;2.45;2.00;;;-3.30;1.40;;;-2.76;100.00;96542.70;647660;212;31784;-76
2022/01/26 03:15:46;;;;;;;1.37;1.27;;;-3.30;1.40;;;-2.78;100.00;96530.52;650405;216;31564;-76
2022/01/26 03:18:50;;;;;;;2.67;1.30;;;-3.40;1.40;;;-2.90;100.00;96527.25;630543;221;31744;-76
2022/01/26 03:21:25;;;;;;;1.48;1.35;;;-3.40;1.40;;;-2.77;100.00;96526.32;653196;212;31630;-76
2022/01/26 03:29:54;;;;;;;4.37;2.85;;;-3.40;1.40;;;-2.90;100.00;96533.39;652288;212;31696;-77
2022/01/26 03:35:56;;;;;;;7.78;1.90;;;-3.50;1.40;;;-3.10;100.00;96538.84;652443;216;31635;-75
2022/01/26 03:38:45;;;;;;;3.90;2.20;;;-3.50;1.40;;;-3.30;100.00;96538.05;648625;216;31589;-75
2022/01/26 03:41:37;;;;;;;2.70;1.98;;;-3.60;1.40;;;-3.19;100.00;96542.03;648080;216;31497;-77
2022/01/26 03:44:09;;;;;;;1.92;1.60;;;-3.60;1.40;;;-2.78;100.00;96547.94;649077;216;31567;-76
2022/01/26 03:46:50;;;;;;;2.22;1.92;;;-3.40;1.40;;;-2.69;100.00;96544.73;645609;212;31564;-76
2022/01/26 03:49:34;;;;;;;2.25;1.65;;;-3.40;1.40;;;-2.97;100.00;96549.68;646584;216;31560;-76
2022/01/26 03:52:20;;;;;;;1.40;1.10;;;-3.60;1.40;;;-3.01;100.00;96546.86;647414;216;31607;-74
2022/01/26 03:55:09;;;;;;;2.70;1.70;;;-3.60;1.40;;;-2.74;100.00;96553.27;620085;226;31888;-76
2022/01/26 03:57:51;;;;;;;1.70;1.60;;;-3.50;1.40;;;-2.61;100.00;96554.80;617852;222;32223;-76
2022/01/26 04:00:33;;;;;;;2.80;1.37;;;-3.50;1.40;;;-2.68;100.00;96560.11;646100;216;31565;-76
2022/01/26 04:03:17;;;;;;;4.47;1.95;;;-3.50;1.40;;;-2.69;100.00;96551.87;649149;216;31554;-76
2022/01/26 04:05:59;;;;;;;2.20;2.10;;;-3.50;1.40;;;-2.99;100.00;96552.72;644095;212;31725;-76
2022/01/26 04:08:43;;;;;;;2.25;1.37;;;-3.60;1.40;;;-2.95;100.00;96551.89;618533;222;42825;-76
2022/01/26 04:11:33;;;;;;;2.03;1.05;;;-3.60;1.40;;;-3.01;100.00;96552.23;647762;216;32163;-76
2022/01/26 04:14:05;;;;;;;1.85;1.40;;;-3.60;1.40;;;-3.15;100.00;96553.73;647032;216;31636;-77
2022/01/26 04:16:47;;;;;;;1.92;1.83;;;-3.60;1.40;;;-3.03;100.00;96560.30;647896;212;31524;-76
2022/01/26 04:19:37;;;;;;;0.85;0.85;;;-3.60;1.40;;;-2.98;100.00;96558.46;647197;216;31552;-75
2022/01/26 04:22:24;;;;;;;4.20;1.62;;;-3.60;1.40;;;-2.95;100.00;96562.71;649788;216;31616;-76
2022/01/26 04:25:01;;;;;;;1.50;1.40;;;-3.50;1.40;;;-2.71;100.00;96569.43;649830;216;32199;-77
2022/01/26 04:27:48;;;;;;;1.25;1.12;;;-3.50;1.40;;;-2.56;100.00;96576.22;645671;216;31573;-76
2022/01/26 04:30:30;;;;;;;2.83;1.40;;;-3.40;1.40;;;-2.56;100.00;96564.28;645959;216;31562;-76
2022/01/26 04:35:53;;;;;;;3.85;1.35;;;-3.60;1.40;;;-2.88;100.00;96566.13;650179;216;31589;-75
2022/01/26 04:38:41;;;;;;;5.68;2.78;;;-3.60;1.40;;;-2.79;100.00;96565.16;619311;222;32557;-73
2022/01/26 04:41:31;;;;;;;4.47;1.33;;;-3.60;1.40;;;-3.09;100.00;96562.30;649140;216;31562;-76
2022/01/26 04:44:18;;;;;;;2.35;1.60;;;-3.70;1.40;;;-3.23;100.00;96561.22;646144;216;31506;-76
2022/01/26 04:49:25;;;;;;;3.05;1.25;;;-3.80;1.40;;;-3.24;100.00;96551.33;646411;216;31515;-76
2022/01/26 04:52:10;;;;;;;2.10;1.80;;;-3.80;1.40;;;-3.24;100.00;96553.33;648939;212;31594;-76
2022/01/26 04:54:52;;;;;;;2.75;1.40;;;-3.80;1.40;;;-3.44;100.00;96547.63;616718;222;31912;-76
2022/01/26 04:57:33;;;;;;;2.62;1.12;;;-3.90;1.40;;;-3.51;100.00;96547.76;651992;216;31491;-75
2022/01/26 05:00:21;;;;;;;1.60;1.50;;;-4.00;1.40;;;-3.55;100.00;96553.12;618400;226;31917;-75
2022/01/26 05:03:03;;;;;;;1.85;1.33;;;-4.10;1.40;;;-3.58;100.00;96557.59;649465;212;31532;-75
2022/01/26 05:05:46;;;;;;;2.40;1.10;;;-4.10;1.40;;;-3.77;100.00;96556.41;617428;222;32071;-75
2022/01/26 05:08:30;;;;;;;2.00;1.42;;;-4.20;1.40;;;-3.81;100.00;96557.97;630099;221;31701;-76
2022/01/26 05:11:30;;;;;;;4.32;1.90;;;-4.20;1.40;;;-3.82;100.00;96563.20;645396;216;31903;-76
2022/01/26 05:14:00;;;;;;;2.03;1.33;;;-4.30;1.40;;;-3.85;100.00;96560.56;651342;216;32231;-76
2022/01/26 05:16:42;;;;;;;1.58;1.45;;;-4.30;1.40;;;-3.77;100.00;96557.48;651860;216;31624;-77
2022/01/26 05:19:23;;;;;;;2.33;1.90;;;-4.30;1.40;;;-3.91;100.00;96556.03;650250;212;32152;-76
2022/01/26 05:22:05;;;;;;;1.50;0.98;;;-4.30;1.40;;;-3.93;100.00;96560.20;649173;216;32238;-77
2022/01/26 05:24:47;;;;;;;2.20;1.40;;;-4.30;1.40;;;-3.90;100.00;96556.41;650460;216;31500;-77
2022/01/26 05:27:32;;;;;;;2.50;1.60;;;-4.30;1.40;;;-3.93;100.00;96557.25;634837;222;32217;-76
2022/01/26 05:30:14;;;;;;;1.30;1.20;;;-4.30;1.40;;;-3.93;100.00;96554.23;648071;212;31588;-77
2022/01/26 05:32:55;;;;;;;1.08;0.85;;;-4.20;1.40;;;-3.91;100.00;96555.14;648316;216;31518;-77
2022/01/26 05:36:00;;;;;;;1.37;1.08;;;-4.30;1.40;;;-3.96;100.00;96557.16;648133;216;42423;-75
2022/01/26 05:38:44;;;;;;;3.00;1.40;;;-4.40;1.40;;;-3.98;100.00;96559.20;649727;216;31592;-76
2022/01/26 05:41:28;;;;;;;2.85;1.55;;;-4.40;1.40;;;-4.05;100.00;96564.95;652413;216;31577;-73
2022/01/26 05:44:09;;;;;;;1.00;1.00;;;-4.50;1.40;;;-4.10;100.00;96569.72;645763;212;31595;-76
2022/01/26 05:46:53;;;;;;;2.10;1.48;;;-4.50;1.40;;;-4.15;100.00;96565.70;648284;212;31978;-77
2022/01/26 05:49:35;;;;;;;1.50;1.25;;;-4.60;1.40;;;-4.10;100.00;96567.66;645349;216;31521;-75
2022/01/26 05:52:22;;;;;;;1.27;1.17;;;-4.50;1.40;;;-4.11;100.00;96571.17;648944;216;31620;-75
2022/01/26 05:55:10;;;;;;;1.98;1.40;;;-4.50;1.40;;;-4.10;100.00;96569.56;648374;216;31563;-76
2022/01/26 05:57:55;;;;;;;1.00;0.90;;;-4.60;1.40;;;-4.11;100.00;96568.48;649573;216;31618;-75
2022/01/26 06:00:37;;;;;;;4.35;1.60;;;-4.60;1.40;;;-4.17;100.00;96571.67;645551;216;31621;-76
2022/01/26 06:03:24;;;;;;;1.75;1.33;;;-4.60;1.40;;;-4.16;100.00;96568.92;647780;216;31574;-75
2022/01/26 06:06:06;;;;;;;2.28;1.25;;;-4.70;1.40;;;-4.21;100.00;96568.75;640593;212;43509;-76
2022/01/26 06:08:54;;;;;;;3.03;2.80;;;-4.70;1.40;;;-4.25;100.00;96570.51;647613;216;31555;-73
2022/01/26 06:11:42;;;;;;;4.35;1.42;;;-4.80;1.40;;;-4.28;100.00;96573.95;623710;222;31975;-77
2022/01/26 06:14:23;;;;;;;0.90;0.80;;;-4.80;1.40;;;-4.30;100.00;96565.31;645196;212;31571;-77
2022/01/26 06:17:07;;;;;;;2.17;1.10;;;-4.70;1.40;;;-4.30;100.00;96564.81;649359;216;31935;-77
2022/01/26 06:19:49;;;;;;;0.60;0.57;;;-4.60;1.40;;;-4.30;100.00;96559.67;621112;222;31924;-76
2022/01/26 06:22:37;;;;;;;1.83;0.88;;;-4.60;1.40;;;-4.26;100.00;96554.72;645184;212;31581;-75
2022/01/26 06:25:21;;;;;;;2.62;1.23;;;-4.50;1.40;;;-4.19;100.00;96553.36;648898;216;31554;-74
2022/01/26 06:30:37;;;;;;;2.00;1.30;;;-4.40;1.40;;;-4.05;100.00;96554.97;649359;216;31530;-75
2022/01/26 06:35:56;;;;;;;6.35;2.45;;;-4.40;1.40;;;-4.04;100.00;96558.54;645634;216;31597;-76
2022/01/26 06:38:37;;;;;;;2.10;1.30;;;-4.40;1.40;;;-4.02;100.00;96563.06;618589;222;32757;-73
2022/01/26 06:41:27;;;;;;;1.27;1.25;;;-4.50;1.40;;;-4.07;100.00;96561.39;648587;216;31571;-77
2022/01/26 06:44:17;;;;;;;2.78;0.93;;;-4.60;1.40;;;-4.14;100.00;96559.52;649644;216;31576;-77
2022/01/26 06:47:02;;;;;;;1.10;1.10;;;-4.50;1.40;;;-4.14;100.00;96554.34;648230;212;31883;-77
2022/01/26 06:49:34;;;;;;;1.60;0.85;;;-4.50;1.40;;;-4.17;100.00;96557.83;646402;212;31588;-77
2022/01/26 06:52:21;;;;;;;7.70;1.20;;;-4.60;1.40;;;-4.22;100.00;96564.92;646006;216;31630;-75
2022/01/26 06:55:09;;;;;;;1.37;0.95;;;-4.60;1.40;;;-4.21;100.00;96566.38;647315;216;31518;-76
2022/01/26 06:57:53;;;;;;;1.10;1.00;;;-4.60;1.40;;;-4.18;100.00;96569.55;624818;222;31977;-75
2022/01/26 07:00:35;;;;;;;2.80;1.20;;;-4.60;1.40;;;-4.12;100.00;96569.16;651909;213;31725;-75
2022/01/26 07:03:23;;;;;;;2.42;1.50;;;-4.50;1.40;;;-4.04;100.00;96572.06;648962;216;31520;-77
2022/01/26 07:06:11;;;;;;;1.83;1.30;;;-4.50;1.40;;;-4.06;100.00;96571.35;649241;212;31546;-77
2022/01/26 07:08:59;;;;;;;1.40;1.30;;;-4.60;1.40;;;-4.06;100.00;96571.92;648128;212;31524;-77
2022/01/26 07:11:41;;;;;;;4.00;2.20;;;-4.50;1.40;;;-4.00;100.00;96572.72;620519;222;31917;-81
2022/01/26 07:20:59;;;;;;;1.98;1.87;;;-4.50;1.40;;;-3.78;100.00;96586.05;646032;216;32903;-76
2022/01/26 07:22:56;;;;;;;1.65;0.93;;;-4.50;1.40;;;-3.57;100.00;96597.19;646724;212;31772;-73
2022/01/26 07:25:38;;;;;;;4.00;1.48;;;-4.50;1.40;;;-3.39;100.00;96589.86;647674;212;31818;-74
2022/01/26 07:28:20;;;;;;;1.80;1.70;;;-4.30;1.40;;;-3.31;100.00;96587.63;619102;222;31866;-73
2022/01/26 07:31:08;;;;;;;2.17;1.30;;;-4.30;1.40;;;-3.44;100.00;96582.38;645922;216;31527;-80
2022/01/26 07:35:51;;;;;;;2.40;1.83;;;-4.30;1.40;;;-3.21;100.00;96589.42;646977;212;32111;-76
2022/01/26 07:38:32;;;;;;;1.33;0.95;;;-4.20;1.40;;;-3.21;100.00;96590.58;646016;216;31552;-76
2022/01/26 07:41:14;;;;;;;1.80;1.30;;;-4.10;1.40;;;-3.20;100.00;96584.12;633317;222;31756;-76
2022/01/26 07:43:56;;;;;;;1.70;1.60;;;-4.10;1.40;;;-3.14;100.00;96572.90;647427;212;31600;-76
2022/01/26 07:46:40;;;;;;;2.03;1.87;;;-4.00;1.40;;;-3.02;100.00;96571.45;620453;226;31912;-73
2022/01/26 07:49:22;;;;;;;2.50;2.00;;;-3.90;1.40;;;-2.79;100.00;96582.92;620212;226;31943;-73
2022/01/26 07:52:04;;;;;;;2.20;2.00;;;-3.80;1.40;;;-2.65;100.00;96585.95;647703;212;31604;-73
2022/01/26 07:54:50;;;;;;;1.12;1.08;;;-3.70;1.40;;;-2.49;100.00;96588.64;646165;212;31556;-74
2022/01/26 07:57:28;;;;;;;2.08;1.90;;;-3.60;1.40;;;-2.30;100.00;96586.78;620756;222;31929;-76
2022/01/26 08:00:11;;;;;;;2.17;1.55;;;-3.50;1.40;;;-2.22;100.00;96590.25;629983;222;31743;-76
2022/01/26 08:02:52;;;;;;;2.05;1.85;;;-3.40;1.40;;;-2.06;100.00;96593.43;647374;216;31551;-76
2022/01/26 08:05:34;;;;;;;2.20;2.00;;;-3.30;1.40;;;-2.03;100.00;96594.14;647950;212;31536;-76
2022/01/26 08:08:16;;;;;;;1.92;1.42;;;-3.20;1.40;;;-2.21;100.00;96589.43;619269;225;31952;-76
2022/01/26 08:10:58;;;;;;;3.00;1.80;;;-3.20;1.40;;;-2.20;100.00;96587.45;645019;212;31934;-73
2022/01/26 08:13:39;;;;;;;4.18;2.05;;;-3.20;1.40;;;-1.76;100.00;96591.17;648503;216;31535;-74
2022/01/26 08:16:24;;;;;;;1.98;1.65;;;-3.00;1.40;;;-1.70;100.00;96586.37;647127;216;31620;-76
2022/01/26 08:19:07;;;;;;;3.85;2.42;;;-2.90;1.40;;;-1.72;100.00;96584.83;620802;222;31929;-76
2022/01/26 08:21:47;;;;;;;2.90;2.80;;;-2.80;1.40;;;-1.36;100.00;96577.20;647569;212;31597;-73
2022/01/26 08:24:29;;;;;;;2.90;2.70;;;-2.60;1.40;;;-1.26;100.00;96578.61;618150;222;31932;-73
2022/01/26 08:27:16;;;;;;;4.32;1.48;;;-2.50;1.40;;;-1.14;100.00;96584.86;648159;216;31571;-73
2022/01/26 08:30:04;;;;;;;4.55;2.53;;;-2.40;1.40;;;-0.83;100.00;96578.15;646801;216;31594;-74
2022/01/26 08:32:38;;;;;;;5.80;2.33;;;-2.30;1.40;;;-0.78;100.00;96578.55;646602;216;31614;-74
2022/01/26 08:35:51;;;;;;;2.20;2.00;;;-2.20;1.40;;;-1.05;100.00;96582.14;647339;216;31577;-74
2022/01/26 08:38:33;;;;;;;6.35;2.30;;;-2.30;1.40;;;-0.80;100.00;96576.92;620042;226;31885;-74
2022/01/26 08:41:15;;;;;;;1.95;1.50;;;-2.10;1.40;;;-0.70;100.00;96567.86;617874;226;31863;-74
2022/01/26 08:43:56;;;;;;;3.70;1.73;;;-1.90;1.40;;;-0.40;100.00;96571.35;647485;216;31579;-74
2022/01/26 08:46:41;;;;;;;2.40;1.40;;;-1.80;1.40;;;-0.28;100.00;96573.80;647575;212;31606;-77
2022/01/26 08:49:30;;;;;;;3.20;2.40;;;-1.70;1.40;;;-0.12;100.00;96576.86;649728;216;42310;-79
2022/01/26 08:52:13;;;;;;;1.60;1.35;;;-1.50;1.40;;;-0.02;100.00;96576.20;648328;216;42085;-75
2022/01/26 08:54:54;;;;;;;2.47;2.37;;;-1.50;1.40;;;0.00;100.00;96574.98;648257;216;31635;-76
2022/01/26 08:57:36;;;;;;;2.10;1.90;;;-1.50;1.40;;;0.08;100.00;96575.54;620195;226;42635;-75
2022/01/26 09:00:18;;;;;;;5.57;2.30;;;-1.30;1.40;;;0.40;100.00;96580.15;646476;216;42214;-75
2022/01/26 09:03:01;;;;;;;5.37;3.78;;;-0.90;1.40;;;0.80;100.00;96586.94;646828;212;31964;-79
2022/01/26 09:05:45;;;;;;;3.17;2.55;;;-0.70;1.40;;;0.81;100.00;96592.17;645815;212;31566;-75
2022/01/26 09:08:27;;;;;;;2.45;2.25;;;-0.30;1.40;;;1.21;100.00;96598.33;649571;212;32419;-77
2022/01/26 09:11:09;;;;;;;1.48;1.45;;;0.20;1.40;;;2.83;100.00;96601.94;647439;216;31605;-77
2022/01/26 09:13:57;;;;;;;4.62;2.60;;;2.90;1.40;;;5.58;100.00;96597.43;650524;216;31590;-75
2022/01/26 09:16:35;;;;;;;3.53;2.90;;;5.00;1.40;;;7.20;100.00;96601.13;620777;226;32072;-75
2022/01/26 09:19:28;;;;;;;3.85;3.55;;;6.00;1.40;;;7.82;100.00;96590.38;647539;215;31605;-76
2022/01/26 09:22:10;;;;;;;7.87;5.37;;;6.50;1.40;;;7.69;100.00;96592.91;621336;226;31900;-76
2022/01/26 09:24:54;;;;;;;5.80;4.10;;;6.80;1.40;;;11.10;100.00;96584.37;649753;212;32630;-76
2022/01/26 09:27:36;;;;;;;6.72;4.82;;;7.60;1.40;;;13.51;100.00;96580.27;619321;222;32065;-76
2022/01/26 09:30:18;;;;;;;6.43;3.67;;;9.30;1.40;;;15.69;100.00;96579.91;623759;226;42481;-76
2022/01/26 09:33:00;;;;;;;5.93;3.85;;;10.70;1.40;;;13.38;67.89;96580.16;618695;222;31908;-77
2022/01/26 09:35:51;;;;;;;5.70;3.90;;;9.70;1.40;;;15.95;100.00;96580.39;648546;216;31668;-76
2022/01/26 09:38:33;;;;;;;4.60;3.90;;;10.40;1.40;;;13.95;70.27;96573.77;646265;216;31904;-76
2022/01/26 09:41:17;;;;;;;4.82;3.55;;;9.10;1.40;;;14.78;90.27;96570.02;649554;216;42827;-76
2022/01/26 09:43:59;;;;;;;4.67;3.60;;;8.10;1.40;;;16.09;80.82;96562.63;647278;216;31574;-76
2022/01/26 09:46:41;;;;;;;5.87;4.57;;;9.40;1.40;;;17.33;72.92;96567.60;621167;226;32059;-76
2022/01/26 09:49:29;;;;;;;5.35;4.00;;;11.60;1.40;;;18.58;74.47;96571.39;645154;212;31609;-76
2022/01/26 09:52:07;;;;;;;5.55;4.60;;;12.20;1.40;;;17.79;55.74;96573.50;648826;216;31601;-76
2022/01/26 09:54:47;;;;;;;4.47;3.47;;;11.90;1.40;;;14.52;67.32;96577.77;648747;212;31591;-76
2022/01/26 09:57:28;;;;;;;4.97;3.35;;;10.40;1.40;;;16.23;58.14;96566.13;649865;216;42338;-76
2022/01/26 10:00:11;;;;;;;4.03;3.42;;;11.30;1.40;;;15.59;55.23;96572.88;646765;216;35289;-76
2022/01/26 10:03:00;;;;;;;5.18;3.78;;;11.20;1.40;;;13.99;57.36;96573.38;646317;212;31701;-76
2022/01/26 10:05:43;;;;;;;3.87;3.33;;;8.70;1.40;;;12.02;59.11;96580.39;646299;216;31566;-75
2022/01/26 10:08:49;;;;;;;4.70;3.70;;;8.10;1.40;;;12.50;68.37;96580.97;646752;216;31565;-76
2022/01/26 10:19:37;;;;;;;3.90;3.50;;;12.20;1.40;;;16.50;53.35;96557.42;646009;212;33724;-76
2022/01/26 10:22:19;;;;;;;6.70;4.30;;;12.20;1.40;;;15.16;52.47;96558.14;645518;212;32178;-75
2022/01/26 10:25:04;;;;;;;6.45;4.10;;;11.10;1.40;;;15.14;51.71;96557.08;619887;222;32433;-76
2022/01/26 10:27:46;;;;;;;5.35;4.32;;;11.50;1.40;;;15.72;51.95;96558.39;647810;216;31631;-76
2022/01/26 10:30:27;;;;;;;5.35;4.07;;;11.90;1.40;;;15.33;54.31;96556.59;646890;212;31901;-76
2022/01/26 10:35:51;;;;;;;5.63;4.37;;;11.30;1.40;;;15.07;54.93;96572.60;646824;216;31674;-76
2022/01/26 10:38:32;;;;;;;6.18;3.97;;;11.70;1.40;;;15.45;50.35;96574.70;647592;216;31778;-76
2022/01/26 10:41:19;;;;;;;6.85;4.97;;;11.90;1.40;;;15.19;50.19;96570.96;646545;212;31664;-76
2022/01/26 10:44:04;;;;;;;5.30;4.12;;;11.50;1.40;;;16.88;51.01;96550.97;646651;216;32058;-75
2022/01/26 10:46:46;;;;;;;5.72;4.50;;;12.50;1.40;;;18.59;46.13;96537.50;646488;212;31564;-76
2022/01/26 10:54:34;;;;;;;7.03;5.20;;;13.70;1.40;;;20.55;42.37;96524.80;647272;216;31607;-76
2022/01/26 10:57:06;;;;;;;7.15;5.30;;;13.00;1.40;;;20.36;41.22;96513.06;646964;216;31551;-76
2022/01/26 10:59:47;;;;;;;7.90;6.10;;;13.20;1.40;;;20.04;45.09;96523.63;647511;216;31672;-76
2022/01/26 11:02:33;;;;;;;7.32;5.70;;;13.20;1.40;;;19.69;43.05;96516.22;646021;216;31682;-76
2022/01/26 11:05:11;;;;;;;7.18;5.53;;;13.20;1.40;;;20.78;42.08;96502.44;645024;216;31740;-76
2022/01/26 11:07:53;;;;;;;7.62;5.90;;;13.40;1.40;;;21.56;37.73;96496.09;635984;212;32014;-76
2022/01/26 11:10:35;;;;;;;7.18;6.47;;;13.80;1.40;;;21.59;35.21;96492.12;647609;212;31594;-76
2022/01/26 11:13:23;;;;;;;8.25;5.80;;;13.20;1.40;;;22.15;37.74;96491.48;647182;216;31738;-78
2022/01/26 11:16:11;;;;;;;6.15;5.15;;;13.60;1.40;;;21.74;37.96;96498.57;646530;216;42378;-79
2022/01/26 11:18:58;;;;;;;7.70;5.50;;;14.30;1.40;;;21.33;39.59;96491.94;642130;216;31725;-79
2022/01/26 11:21:39;;;;;;;7.12;5.50;;;13.60;1.40;;;21.13;37.23;96487.02;645431;216;31578;-76
2022/01/26 11:24:21;;;;;;;7.80;6.32;;;13.80;1.40;;;21.90;36.73;96480.62;646769;216;31766;-77
2022/01/26 11:27:03;;;;;;;7.22;5.62;;;14.80;1.40;;;20.24;36.81;96474.48;647283;212;32331;-77
2022/01/26 11:29:48;;;;;;;6.37;5.28;;;14.10;1.40;;;18.71;38.08;96479.59;647032;216;32254;-76
2022/01/26 11:32:34;;;;;;;9.13;6.32;;;13.50;1.40;;;19.47;38.75;96477.52;646367;212;32333;-75
2022/01/26 11:35:51;;;;;;;7.50;5.50;;;14.10;1.40;;;19.68;36.75;96474.59;645818;212;34668;-76
2022/01/26 11:39:13;;;;;;;7.03;5.27;;;14.00;1.40;;;21.48;36.75;96478.07;647130;216;31544;-76
2022/01/26 11:47:09;;;;;;;7.75;5.20;;;13.60;1.40;;;18.14;38.21;96487.06;645938;212;31565;-76
2022/01/26 11:52:53;;;;;;;8.77;5.85;;;13.40;1.40;;;18.78;36.79;96486.45;646976;216;31528;-76
2022/01/26 11:55:45;;;;;;;8.02;5.30;;;13.60;1.40;;;19.70;37.66;96486.88;646541;212;31535;-76
2022/01/26 11:58:31;;;;;;;6.97;5.50;;;14.30;1.40;;;21.14;35.65;96495.64;647251;212;31569;-76
2022/01/26 12:01:14;;;;;;;7.07;5.60;;;13.90;1.40;;;18.81;37.41;96497.01;647079;216;32178;-76
2022/01/26 12:04:00;;;;;;;6.15;5.40;;;13.40;1.40;;;18.33;38.83;96494.08;618859;223;31893;-76
2022/01/26 12:06:47;;;;;;;7.95;6.28;;;13.20;1.40;;;17.38;39.47;96498.75;642025;216;32605;-76
2022/01/26 12:09:23;;;;;;;7.45;5.28;;;11.90;1.40;;;16.15;41.18;96502.10;646738;216;31588;-76
2022/01/26 12:12:25;;;;;;;8.18;5.95;;;11.00;1.40;;;15.20;42.75;96512.26;631896;222;31739;-78
2022/01/26 12:15:15;;;;;;;7.03;5.30;;;10.70;1.40;;;13.80;45.23;96514.34;647431;216;31655;-76
2022/01/26 12:18:18;;;;;;;7.90;5.40;;;10.30;1.40;;;12.78;47.46;96517.77;646156;216;31563;-75
2022/01/26 12:35:59;;;;;;;7.90;6.07;;;7.90;1.40;;;9.40;68.34;96521.55;645644;212;32485;-75
2022/01/26 12:38:45;;;;;;;8.18;5.93;;;7.70;1.40;;;8.77;72.76;96521.60;618776;225;42531;-75
2022/01/26 12:41:33;;;;;;;8.85;5.55;;;7.40;1.40;;;9.09;71.53;96515.14;619388;222;39500;-74
2022/01/26 12:44:13;;;;;;;8.75;6.28;;;7.60;1.40;;;9.09;73.10;96517.14;645223;216;31717;-75
2022/01/26 12:46:55;;;;;;;9.17;6.00;;;7.30;1.40;;;9.29;71.23;96511.45;647497;212;32807;-76
2022/01/26 12:49:36;;;;;;;6.37;5.30;;;7.30;1.40;;;8.58;76.03;96515.24;646158;212;32701;-75
2022/01/26 12:52:18;;;;;;;8.40;5.80;;;7.60;1.40;;;9.56;73.00;96504.20;646231;212;32147;-75
2022/01/26 12:55:00;;;;;;;8.50;5.57;;;8.50;1.40;;;9.71;71.24;96492.35;646158;216;31583;-77
2022/01/26 12:57:43;;;;;;;9.57;6.20;;;8.00;1.40;;;9.55;71.57;96481.13;647778;216;32277;-75
2022/01/26 13:00:34;;;;;;;12.65;6.80;;;7.80;1.40;;;8.99;76.21;96468.72;631563;217;31899;-77
2022/01/26 13:03:16;;;;;;;9.50;6.77;;;7.60;1.40;;;9.06;76.26;96473.16;646923;216;31585;-74
2022/01/26 13:06:04;;;;;;;8.50;5.80;;;7.80;1.40;;;9.47;74.53;96468.77;645211;216;31636;-74
2022/01/26 13:08:52;;;;;;;6.70;4.82;;;9.00;1.40;;;10.05;70.54;96479.49;646029;216;31564;-76
2022/01/26 13:11:37;;;;;;;9.37;6.00;;;9.00;1.40;;;10.32;68.91;96481.34;647217;216;31715;-79
2022/01/26 13:17:34;;;;;;;7.43;5.25;;;9.30;1.40;;;10.82;64.67;96474.45;647535;216;31551;-75
2022/01/26 13:20:22;;;;;;;10.17;5.90;;;10.10;1.40;;;11.43;62.63;96478.38;619716;222;32414;-76
2022/01/26 13:23:19;;;;;;;10.38;6.45;;;10.40;1.40;;;11.74;61.25;96477.34;631566;222;32052;-77
2022/01/26 13:26:00;;;;;;;7.77;5.90;;;10.70;1.40;;;12.19;59.63;96471.23;646324;212;31590;-75
2022/01/26 13:28:43;;;;;;;7.80;5.90;;;11.80;1.40;;;12.16;56.67;96474.42;619009;226;43124;-75
2022/01/26 13:31:35;;;;;;;9.47;5.40;;;10.40;1.40;;;11.61;57.80;96471.24;620616;222;32027;-79
2022/01/26 13:36:07;;;;;;;11.10;6.65;;;10.20;1.40;;;11.67;60.10;96474.82;648339;216;31899;-79
2022/01/26 13:39:02;;;;;;;8.75;6.60;;;11.40;1.40;;;12.23;56.18;96478.91;646794;216;42166;-75
2022/01/26 13:41:46;;;;;;;7.43;5.28;;;11.50;1.40;;;11.51;56.16;96486.95;618067;222;32165;-77